KMDZ

Taylor County Airport

Medford, Wisconsin, USA
METAR KMDZ 192255Z AUTO 00000KT 10SM CLR 24/16 A2997 RMK AO2 T02360159
Observed Flight Rules
Aug-19 @ 22:55 UTC (11 minutes ago) Visual Flight Rules
Visibility Clouds
10 miles
  • Clear skies
Temperatures Readings
Current 24°C / 75°F
Dewpoint 16°C / 61°F
Humidity 61%
Altimeter 29.97" Hg
Pressure 1015 hPa
Elevation 448
METAR KMDZ 192255Z AUTO 00000KT 10SM CLR 24/16 A2997 RMK AO2 T02360159
Observed Flight Rules
Aug-19 @ 22:55 UTC
(11 minutes ago)
VFR
Clouds
  • Clear skies
Temperature Dewpoint
24°C / 75°F 16°C / 61°F
Humidity Altimeter Pressure
61% 29.97" Hg 1015 hPa